createdAt,value
2017-12-27T00:00:11.286Z,16.90
2017-12-27T00:02:44.114Z,16.90
2017-12-27T00:05:32.101Z,16.80
2017-12-27T00:08:15.693Z,16.90
2017-12-27T00:10:48.525Z,16.90
2017-12-27T00:13:22.085Z,17.10
2017-12-27T00:15:54.921Z,17.10
2017-12-27T00:18:27.850Z,17.10
2017-12-27T00:21:00.688Z,17.10
2017-12-27T00:23:33.493Z,17.10
2017-12-27T00:26:06.332Z,17.10
2017-12-27T00:28:39.850Z,17.00
2017-12-27T00:31:09.569Z,17.00
2017-12-27T00:33:36.737Z,17.00
2017-12-27T00:36:03.897Z,17.00
2017-12-27T00:38:31.069Z,17.10
2017-12-27T00:40:58.237Z,17.00
2017-12-27T00:43:25.492Z,17.00
2017-12-27T00:45:52.658Z,17.00
2017-12-27T00:48:20.589Z,16.90
2017-12-27T00:50:47.757Z,16.90
2017-12-27T00:53:14.936Z,16.90
2017-12-27T00:55:42.873Z,16.90
2017-12-27T00:58:10.041Z,16.90
2017-12-27T01:00:37.209Z,17.00
2017-12-27T01:03:05.185Z,16.90
2017-12-27T01:05:33.120Z,16.90
2017-12-27T01:08:00.293Z,16.90
2017-12-27T01:10:28.230Z,16.80
2017-12-27T01:12:55.405Z,16.80
2017-12-27T01:15:22.578Z,16.80
2017-12-27T01:17:50.546Z,16.80
2017-12-27T01:20:18.477Z,16.80
2017-12-27T01:22:45.645Z,16.80
2017-12-27T01:25:12.818Z,16.80
2017-12-27T01:27:40.749Z,16.70
2017-12-27T01:30:07.918Z,16.70
2017-12-27T01:32:35.091Z,16.80
2017-12-27T01:35:03.030Z,16.80
2017-12-27T01:37:30.255Z,16.80
2017-12-27T01:39:57.537Z,16.80
2017-12-27T01:42:26.744Z,16.80
2017-12-27T01:44:53.920Z,16.80
2017-12-27T01:47:21.857Z,16.70
2017-12-27T01:49:49.029Z,16.70
2017-12-27T01:52:16.969Z,16.70
2017-12-27T01:54:44.137Z,16.60
2017-12-27T01:57:11.305Z,16.70
2017-12-27T01:59:39.245Z,16.60
2017-12-27T02:02:06.409Z,16.60
2017-12-27T02:04:33.578Z,16.60
2017-12-27T02:07:01.513Z,16.60
2017-12-27T02:09:28.721Z,16.60
2017-12-27T02:11:55.900Z,16.70
2017-12-27T02:14:23.072Z,16.80
2017-12-27T02:16:50.241Z,16.80
2017-12-27T02:19:17.451Z,16.80
2017-12-27T02:21:44.613Z,16.80
2017-12-27T02:24:11.773Z,16.80
2017-12-27T02:26:39.045Z,16.70
2017-12-27T02:29:06.248Z,16.70
2017-12-27T02:31:33.462Z,16.70
2017-12-27T02:34:01.392Z,16.80
2017-12-27T02:36:28.562Z,16.80
2017-12-27T02:38:56.513Z,16.80
2017-12-27T02:41:24.684Z,16.80
2017-12-27T02:43:51.848Z,16.80
2017-12-27T02:46:19.026Z,16.90
2017-12-27T02:48:46.198Z,17.00
2017-12-27T02:51:14.125Z,17.10
2017-12-27T02:53:41.294Z,17.10
2017-12-27T02:56:08.458Z,17.20
2017-12-27T02:58:37.210Z,17.10
2017-12-27T03:01:06.094Z,17.00
2017-12-27T03:03:33.258Z,17.00
2017-12-27T03:06:01.456Z,17.10
2017-12-27T03:08:29.525Z,17.10
2017-12-27T03:10:56.724Z,17.00
2017-12-27T03:13:23.897Z,17.00
2017-12-27T03:15:51.962Z,17.00
2017-12-27T03:18:19.136Z,17.00
2017-12-27T03:20:46.297Z,17.00
2017-12-27T03:23:13.461Z,16.90
2017-12-27T03:25:40.667Z,16.90
2017-12-27T03:28:08.735Z,17.00
2017-12-27T03:30:35.894Z,17.00
2017-12-27T03:33:03.056Z,17.00
2017-12-27T03:35:31.229Z,17.00
2017-12-27T03:37:58.392Z,17.00
2017-12-27T03:40:26.368Z,17.00
2017-12-27T03:42:53.529Z,16.90
2017-12-27T03:45:20.689Z,16.90
2017-12-27T03:47:47.890Z,16.90
2017-12-27T03:50:15.052Z,16.90
2017-12-27T03:52:42.217Z,16.90
2017-12-27T03:55:09.416Z,16.90
2017-12-27T03:57:37.133Z,16.80
2017-12-27T04:00:05.233Z,16.80
2017-12-27T04:02:32.441Z,16.80
2017-12-27T04:04:59.606Z,16.90
2017-12-27T04:07:26.781Z,16.90
2017-12-27T04:09:53.946Z,16.90
2017-12-27T04:12:21.913Z,16.80
2017-12-27T04:14:50.660Z,16.80
2017-12-27T04:17:17.821Z,16.80
2017-12-27T04:19:44.983Z,16.70
2017-12-27T04:22:12.140Z,16.60
2017-12-27T04:24:39.304Z,16.70
2017-12-27T04:27:07.293Z,16.80
2017-12-27T04:29:36.121Z,16.80
2017-12-27T04:32:03.317Z,16.80
2017-12-27T04:34:31.293Z,16.80
2017-12-27T04:37:00.145Z,16.80
2017-12-27T04:39:28.212Z,16.80
2017-12-27T04:41:55.368Z,16.80
2017-12-27T04:44:23.351Z,16.80
2017-12-27T04:46:50.524Z,16.80
2017-12-27T04:49:17.704Z,16.80
2017-12-27T04:51:44.901Z,16.80
2017-12-27T04:54:12.974Z,16.80
2017-12-27T04:56:40.172Z,16.70
2017-12-27T04:59:08.097Z,16.80
2017-12-27T05:01:35.301Z,16.80
2017-12-27T05:04:03.253Z,16.80
2017-12-27T05:06:31.183Z,16.80
2017-12-27T05:08:58.348Z,16.80
2017-12-27T05:11:25.550Z,16.80
2017-12-27T05:13:52.749Z,16.70
2017-12-27T05:16:20.852Z,16.70
2017-12-27T05:18:48.776Z,16.60
2017-12-27T05:21:15.945Z,16.60
2017-12-27T05:23:44.055Z,16.60
2017-12-27T05:26:11.980Z,16.80
2017-12-27T05:28:39.183Z,16.80
2017-12-27T05:31:06.361Z,16.90
2017-12-27T05:33:34.352Z,17.00
2017-12-27T05:36:02.292Z,17.00
2017-12-27T05:38:29.457Z,17.00
2017-12-27T05:40:56.713Z,17.00
2017-12-27T05:43:23.896Z,17.00
2017-12-27T05:45:51.101Z,17.00
2017-12-27T05:48:18.265Z,16.90
2017-12-27T05:50:46.376Z,16.90
2017-12-27T05:53:13.541Z,16.90
2017-12-27T05:55:41.609Z,17.00
2017-12-27T05:58:09.548Z,17.00
2017-12-27T06:00:36.708Z,16.90
2017-12-27T06:03:04.792Z,16.90
2017-12-27T06:05:31.952Z,16.80
2017-12-27T06:07:59.884Z,16.90
2017-12-27T06:10:27.054Z,16.90
2017-12-27T06:12:54.394Z,16.90
2017-12-27T06:15:21.570Z,16.80
2017-12-27T06:17:48.786Z,16.70
2017-12-27T06:20:16.856Z,16.50
2017-12-27T06:22:44.108Z,16.50
2017-12-27T06:25:11.361Z,16.50
2017-12-27T06:27:38.533Z,16.50
2017-12-27T06:30:05.701Z,16.50
2017-12-27T06:32:32.864Z,16.40
2017-12-27T06:35:00.023Z,16.40
2017-12-27T06:37:27.221Z,16.40
2017-12-27T06:42:36.941Z,16.40
2017-12-27T06:45:04.134Z,16.50
2017-12-27T06:47:32.063Z,16.40
2017-12-27T06:49:59.993Z,16.40
2017-12-27T06:52:27.200Z,16.50
2017-12-27T06:54:54.358Z,16.60
2017-12-27T06:57:22.284Z,16.70
2017-12-27T06:59:49.448Z,16.70
2017-12-27T07:02:16.616Z,16.70
2017-12-27T07:04:43.776Z,16.60
2017-12-27T07:07:10.937Z,16.60
2017-12-27T07:09:38.867Z,16.70
2017-12-27T07:12:06.037Z,16.70
2017-12-27T07:14:33.197Z,16.80
2017-12-27T07:17:01.158Z,16.80
2017-12-27T07:19:29.094Z,16.80
2017-12-27T07:21:56.260Z,16.70
2017-12-27T07:24:23.413Z,16.70
2017-12-27T07:26:51.552Z,16.70
2017-12-27T07:29:18.716Z,16.70
2017-12-27T07:31:46.810Z,16.80
2017-12-27T07:34:13.976Z,16.80
2017-12-27T07:36:41.140Z,16.70
2017-12-27T07:39:08.301Z,16.70
2017-12-27T07:41:36.235Z,16.70
2017-12-27T07:44:03.451Z,16.70
2017-12-27T07:46:30.622Z,16.80
2017-12-27T07:48:57.776Z,16.70
2017-12-27T07:51:24.971Z,16.60
2017-12-27T07:53:52.911Z,16.60
2017-12-27T07:56:20.113Z,16.60
2017-12-27T07:58:48.041Z,16.80
2017-12-27T08:01:15.206Z,16.80
2017-12-27T08:03:42.368Z,16.90
2017-12-27T08:06:10.298Z,16.90
2017-12-27T08:08:37.453Z,16.90
2017-12-27T08:11:05.557Z,16.90
2017-12-27T08:13:32.753Z,16.80
2017-12-27T08:16:00.813Z,16.70
2017-12-27T08:18:28.917Z,16.70
2017-12-27T08:20:56.120Z,16.70
2017-12-27T08:23:24.053Z,16.70
2017-12-27T08:25:52.132Z,16.70
2017-12-27T08:28:20.192Z,16.60
2017-12-27T08:30:48.495Z,16.50
2017-12-27T08:33:16.573Z,16.50
2017-12-27T08:35:43.741Z,16.60
2017-12-27T08:38:12.463Z,16.60
2017-12-27T08:40:40.447Z,16.60
2017-12-27T08:43:08.424Z,16.60
2017-12-27T08:45:36.482Z,16.50
2017-12-27T08:48:03.682Z,16.40
2017-12-27T08:50:32.518Z,16.50
2017-12-27T08:53:00.617Z,16.50
2017-12-27T08:55:28.701Z,16.50
2017-12-27T08:57:56.800Z,16.50
2017-12-27T09:00:24.729Z,16.40
2017-12-27T09:02:52.716Z,16.40
2017-12-27T09:05:20.665Z,16.40
2017-12-27T09:07:47.820Z,16.50
2017-12-27T09:10:14.987Z,16.50
2017-12-27T09:12:42.153Z,16.50
2017-12-27T09:15:10.894Z,16.40
2017-12-27T09:17:38.057Z,16.40
2017-12-27T09:20:05.275Z,16.30
2017-12-27T09:22:32.434Z,16.30
2017-12-27T09:24:59.601Z,16.30
2017-12-27T09:27:26.779Z,16.30
2017-12-27T09:29:53.943Z,16.30
2017-12-27T09:32:21.108Z,16.20
2017-12-27T09:34:49.981Z,16.10
2017-12-27T09:37:18.053Z,16.10
2017-12-27T09:39:46.168Z,16.10
2017-12-27T09:42:14.240Z,16.20
2017-12-27T09:44:41.401Z,16.30
2017-12-27T09:47:09.333Z,16.20
2017-12-27T09:49:37.453Z,16.20
2017-12-27T09:52:04.618Z,16.20
2017-12-27T09:54:31.809Z,16.20
2017-12-27T09:56:59.747Z,16.20
2017-12-27T09:59:26.944Z,16.20
2017-12-27T10:01:54.910Z,16.10
2017-12-27T10:04:22.833Z,16.20
2017-12-27T10:06:50.983Z,16.10
2017-12-27T10:09:18.148Z,16.20
2017-12-27T10:11:46.238Z,16.40
2017-12-27T10:14:13.403Z,16.50
2017-12-27T10:16:40.601Z,16.60
2017-12-27T10:19:07.794Z,16.70
2017-12-27T10:21:35.873Z,16.70
2017-12-27T10:24:03.077Z,16.70
2017-12-27T10:26:30.242Z,16.70
2017-12-27T10:28:57.411Z,16.60
2017-12-27T10:31:24.627Z,16.60
2017-12-27T10:33:52.546Z,16.60
2017-12-27T10:36:19.717Z,16.60
2017-12-27T10:38:46.882Z,16.60
2017-12-27T10:41:14.815Z,16.60
2017-12-27T10:43:42.767Z,16.60
2017-12-27T10:46:09.924Z,16.50
2017-12-27T10:48:37.128Z,16.50
2017-12-27T10:51:05.055Z,16.50
2017-12-27T10:53:32.217Z,16.50
2017-12-27T10:55:59.384Z,16.50
2017-12-27T10:58:26.598Z,16.50
2017-12-27T11:00:53.765Z,16.50
2017-12-27T11:03:20.929Z,16.40
2017-12-27T11:05:48.099Z,16.40
2017-12-27T11:08:16.029Z,16.50
2017-12-27T11:10:43.192Z,16.50
2017-12-27T11:13:10.358Z,16.50
2017-12-27T11:15:37.517Z,16.50
2017-12-27T11:18:04.677Z,16.40
2017-12-27T11:20:32.628Z,16.50
2017-12-27T11:22:59.802Z,16.50
2017-12-27T11:25:27.729Z,16.50
2017-12-27T11:27:54.930Z,16.50
2017-12-27T11:30:23.912Z,16.60
2017-12-27T11:32:53.775Z,16.60
2017-12-27T11:35:20.938Z,16.60
2017-12-27T11:37:48.106Z,16.50
2017-12-27T11:40:15.306Z,16.50
2017-12-27T11:42:42.470Z,16.50
2017-12-27T11:45:09.634Z,16.40
2017-12-27T11:47:36.806Z,16.50
2017-12-27T11:50:03.973Z,16.50
2017-12-27T11:52:31.139Z,16.50
2017-12-27T11:54:59.995Z,16.40
2017-12-27T11:57:28.074Z,16.40
2017-12-27T11:59:55.234Z,16.30
2017-12-27T12:02:22.399Z,16.30
2017-12-27T12:04:49.560Z,16.30
2017-12-27T12:07:17.494Z,16.40
2017-12-27T12:09:45.439Z,16.40
2017-12-27T12:12:12.633Z,16.30
2017-12-27T12:14:40.613Z,16.40
2017-12-27T12:17:07.828Z,16.40
2017-12-27T12:19:35.901Z,16.50
2017-12-27T12:22:03.101Z,16.60
2017-12-27T12:24:31.029Z,16.70
2017-12-27T12:26:58.189Z,16.70
2017-12-27T12:29:25.366Z,16.60
2017-12-27T12:31:53.378Z,16.50
2017-12-27T12:34:20.829Z,16.50
2017-12-27T12:36:48.077Z,16.50
2017-12-27T12:39:15.232Z,16.50
2017-12-27T12:41:42.437Z,16.50
2017-12-27T12:44:09.698Z,16.50
2017-12-27T12:46:36.863Z,16.50
2017-12-27T12:49:05.530Z,16.40
2017-12-27T12:51:32.733Z,16.40
2017-12-27T12:53:59.944Z,16.40
2017-12-27T12:56:28.892Z,16.50
2017-12-27T12:58:57.256Z,16.50
2017-12-27T13:01:24.422Z,16.40
2017-12-27T13:03:52.373Z,16.40
2017-12-27T13:06:19.537Z,16.40
2017-12-27T13:08:46.702Z,16.30
2017-12-27T13:11:13.906Z,16.30
2017-12-27T13:13:41.878Z,16.40
2017-12-27T13:16:10.677Z,16.50
2017-12-27T13:18:37.878Z,16.40
2017-12-27T13:21:05.828Z,16.40
2017-12-27T13:23:33.026Z,16.50
2017-12-27T13:26:01.106Z,16.40
2017-12-27T13:28:29.050Z,16.40
2017-12-27T13:30:57.053Z,16.40
2017-12-27T13:33:24.989Z,16.40
2017-12-27T13:35:52.193Z,16.40
2017-12-27T13:38:19.362Z,16.40
2017-12-27T13:40:46.565Z,16.40
2017-12-27T13:43:14.565Z,16.40
2017-12-27T13:45:42.546Z,16.40
2017-12-27T13:48:09.749Z,16.30
2017-12-27T13:50:36.933Z,16.40
2017-12-27T13:53:05.681Z,16.40
2017-12-27T13:55:32.846Z,16.40
2017-12-27T13:58:00.788Z,16.50
2017-12-27T14:00:27.992Z,16.40
2017-12-27T14:02:55.914Z,16.40
2017-12-27T14:05:24.652Z,16.40
2017-12-27T14:07:52.584Z,16.40
2017-12-27T14:10:20.646Z,16.40
2017-12-27T14:12:47.813Z,16.40
2017-12-27T14:15:15.871Z,16.50
2017-12-27T14:17:43.074Z,16.50
2017-12-27T14:20:10.239Z,16.50
2017-12-27T14:22:37.477Z,16.50
2017-12-27T14:25:04.643Z,16.40
2017-12-27T14:27:32.553Z,16.40
2017-12-27T14:30:01.121Z,16.50
2017-12-27T14:32:27.897Z,16.60
2017-12-27T14:34:55.830Z,16.80
2017-12-27T14:37:23.034Z,16.80
2017-12-27T14:39:50.965Z,16.90
2017-12-27T14:42:18.141Z,16.90
2017-12-27T14:44:45.313Z,16.90
2017-12-27T14:47:13.249Z,16.90
2017-12-27T14:49:41.321Z,16.90
2017-12-27T14:52:09.396Z,16.80
2017-12-27T14:54:36.560Z,16.80
2017-12-27T14:57:04.497Z,16.80
2017-12-27T14:59:32.572Z,16.80
2017-12-27T15:01:59.738Z,16.80
2017-12-27T15:04:26.904Z,16.80
2017-12-27T15:06:54.070Z,16.80
2017-12-27T15:09:22.985Z,16.70
2017-12-27T15:11:50.150Z,16.70
2017-12-27T15:14:17.322Z,16.70
2017-12-27T15:16:45.293Z,16.70
2017-12-27T15:19:13.387Z,16.70
2017-12-27T15:21:40.552Z,16.70
2017-12-27T15:24:09.388Z,16.70
2017-12-27T15:26:36.557Z,16.70
2017-12-27T15:29:04.668Z,16.70
2017-12-27T15:31:32.598Z,16.60
2017-12-27T15:33:59.768Z,16.60
2017-12-27T15:36:26.930Z,16.50
2017-12-27T15:38:54.918Z,16.50
2017-12-27T15:41:23.622Z,16.50
2017-12-27T15:43:50.781Z,16.50
2017-12-27T15:46:18.084Z,16.60
2017-12-27T15:48:46.186Z,16.60
2017-12-27T15:51:15.007Z,16.60
2017-12-27T15:53:42.976Z,16.60
2017-12-27T15:56:10.914Z,16.60
2017-12-27T15:58:39.773Z,16.60
2017-12-27T16:01:07.201Z,16.60
2017-12-27T16:03:34.365Z,16.70
2017-12-27T16:06:02.334Z,16.70
2017-12-27T16:08:30.317Z,16.70
2017-12-27T16:10:58.271Z,16.60
2017-12-27T16:13:25.442Z,16.50
2017-12-27T16:15:52.701Z,16.50
2017-12-27T16:18:20.636Z,16.50
2017-12-27T16:20:47.848Z,16.50
2017-12-27T16:23:16.541Z,16.50
2017-12-27T16:25:45.397Z,16.50
2017-12-27T16:28:13.456Z,16.50
2017-12-27T16:30:40.623Z,16.60
2017-12-27T16:33:08.597Z,16.60
2017-12-27T16:35:35.798Z,16.50
2017-12-27T16:38:03.014Z,16.60
2017-12-27T16:40:31.969Z,16.60
2017-12-27T16:42:59.132Z,16.60
2017-12-27T16:45:27.193Z,16.60
2017-12-27T16:47:55.293Z,16.70
2017-12-27T16:50:23.350Z,16.70
2017-12-27T16:52:51.463Z,16.70
2017-12-27T16:55:21.166Z,16.50
2017-12-27T16:57:50.042Z,16.60
2017-12-27T17:00:17.995Z,16.50
2017-12-27T17:02:45.205Z,16.60
2017-12-27T17:05:13.141Z,16.60
2017-12-27T17:07:41.989Z,16.70
2017-12-27T17:10:10.196Z,16.60
2017-12-27T17:12:38.270Z,16.60
2017-12-27T17:15:05.437Z,16.60
2017-12-27T17:17:33.374Z,16.60
2017-12-27T17:20:00.544Z,16.60
2017-12-27T17:22:28.618Z,16.60
2017-12-27T17:24:56.684Z,16.60
2017-12-27T17:27:24.788Z,16.70
2017-12-27T17:29:52.717Z,16.80
2017-12-27T17:32:19.921Z,16.80
2017-12-27T17:34:47.086Z,16.90
2017-12-27T17:37:15.028Z,17.00
2017-12-27T17:39:43.845Z,17.00
2017-12-27T17:42:11.894Z,17.00
2017-12-27T17:44:39.821Z,16.90
2017-12-27T17:47:06.984Z,16.90
2017-12-27T17:49:34.145Z,16.90
2017-12-27T17:52:01.321Z,16.80
2017-12-27T17:54:29.411Z,16.80
2017-12-27T17:56:56.574Z,16.70
2017-12-27T17:59:23.744Z,16.70
2017-12-27T18:01:50.905Z,16.70
2017-12-27T18:04:18.109Z,16.70
2017-12-27T18:06:45.277Z,16.70
2017-12-27T18:09:12.440Z,16.80
2017-12-27T18:11:39.600Z,16.70
2017-12-27T18:14:06.761Z,16.60
2017-12-27T18:16:33.921Z,16.70
2017-12-27T18:19:01.088Z,16.70
2017-12-27T18:21:29.020Z,16.70
2017-12-27T18:23:57.113Z,16.70
2017-12-27T18:26:24.410Z,16.60
2017-12-27T18:28:52.507Z,16.70
2017-12-27T18:31:19.693Z,16.70
2017-12-27T18:33:46.863Z,16.70
2017-12-27T18:36:14.850Z,16.70
2017-12-27T18:38:42.778Z,16.70
2017-12-27T18:41:09.973Z,16.70
2017-12-27T18:43:37.896Z,16.60
2017-12-27T18:46:05.057Z,16.60
2017-12-27T18:48:32.225Z,16.60
2017-12-27T18:51:00.154Z,16.70
2017-12-27T18:53:27.334Z,16.70
2017-12-27T18:55:54.497Z,16.70
2017-12-27T18:58:23.045Z,16.70
2017-12-27T19:00:51.065Z,16.70
2017-12-27T19:03:19.029Z,16.70
2017-12-27T19:05:46.961Z,16.70
2017-12-27T19:08:14.127Z,16.70
2017-12-27T19:10:41.326Z,16.70
2017-12-27T19:13:08.519Z,16.70
2017-12-27T19:15:35.888Z,16.70
2017-12-27T19:18:03.053Z,16.70
2017-12-27T19:20:30.213Z,16.80
2017-12-27T19:22:58.145Z,17.00
2017-12-27T19:25:26.218Z,16.90
2017-12-27T19:27:54.189Z,16.90
2017-12-27T19:30:21.445Z,16.90
2017-12-27T19:32:48.710Z,16.90
2017-12-27T19:35:15.974Z,16.90
2017-12-27T19:37:43.973Z,16.90
2017-12-27T19:40:11.204Z,16.90
2017-12-27T19:42:39.233Z,16.90
2017-12-27T19:45:06.430Z,16.90
2017-12-27T19:47:34.492Z,16.90
2017-12-27T19:50:02.438Z,16.90
2017-12-27T19:52:29.610Z,16.80
2017-12-27T19:54:56.769Z,16.80
2017-12-27T19:57:24.705Z,16.80
2017-12-27T19:59:53.893Z,16.80
2017-12-27T20:02:21.053Z,16.80
2017-12-27T20:04:48.230Z,16.90
2017-12-27T20:07:15.392Z,16.90
2017-12-27T20:09:42.605Z,16.80
2017-12-27T20:12:10.557Z,16.80
2017-12-27T20:14:38.489Z,16.80
2017-12-27T20:17:06.421Z,16.80
2017-12-27T20:19:33.586Z,16.80
2017-12-27T20:22:00.841Z,16.80
2017-12-27T20:24:28.006Z,16.80
2017-12-27T20:26:55.178Z,16.80
2017-12-27T20:29:23.141Z,16.80
2017-12-27T20:31:51.990Z,16.80
2017-12-27T20:34:19.186Z,16.70
2017-12-27T20:36:48.018Z,16.80
2017-12-27T20:39:15.221Z,16.80
2017-12-27T20:41:43.152Z,16.80
2017-12-27T20:44:10.353Z,16.70
2017-12-27T20:46:38.281Z,16.80
2017-12-27T20:49:05.476Z,16.70
2017-12-27T20:51:33.401Z,16.80
2017-12-27T20:54:00.607Z,16.70
2017-12-27T20:56:27.769Z,16.80
2017-12-27T20:58:54.940Z,16.80
2017-12-27T21:01:22.169Z,16.80
2017-12-27T21:03:49.329Z,16.80
2017-12-27T21:06:16.521Z,16.80
2017-12-27T21:08:43.677Z,16.80
2017-12-27T21:11:10.833Z,16.70
2017-12-27T21:13:37.993Z,16.70
2017-12-27T21:16:05.981Z,16.80
2017-12-27T21:18:33.215Z,16.80
2017-12-27T21:21:01.380Z,16.80
2017-12-27T21:23:28.541Z,16.80
2017-12-27T21:25:55.701Z,16.80
2017-12-27T21:28:23.633Z,16.70
2017-12-27T21:30:50.793Z,16.80
2017-12-27T21:33:17.957Z,16.70
2017-12-27T21:35:45.252Z,16.70
2017-12-27T21:38:12.419Z,16.70
2017-12-27T21:40:39.581Z,16.70
2017-12-27T21:43:06.757Z,16.70
2017-12-27T21:45:33.925Z,16.80
2017-12-27T21:48:06.797Z,16.80
2017-12-27T21:50:33.957Z,16.70
2017-12-27T21:53:01.118Z,16.60
2017-12-27T21:55:29.054Z,16.80
2017-12-27T21:58:01.957Z,16.70
2017-12-27T22:00:34.874Z,16.90
2017-12-27T22:03:02.807Z,17.00
2017-12-27T22:05:29.978Z,17.00
2017-12-27T22:07:57.913Z,17.00
2017-12-27T22:10:25.081Z,17.00
2017-12-27T22:12:52.247Z,17.00
2017-12-27T22:15:19.465Z,16.90
2017-12-27T22:17:46.669Z,16.90
2017-12-27T22:20:20.281Z,16.90
2017-12-27T22:22:47.446Z,16.90
2017-12-27T22:25:14.661Z,16.90
2017-12-27T22:27:42.608Z,16.90
2017-12-27T22:30:09.776Z,16.90
2017-12-27T22:32:37.717Z,16.90
2017-12-27T22:35:04.888Z,16.90
2017-12-27T22:37:33.777Z,16.90
2017-12-27T22:40:01.037Z,16.90
2017-12-27T22:42:28.195Z,16.90
2017-12-27T22:44:55.361Z,16.80
2017-12-27T22:47:23.329Z,16.80
2017-12-27T22:49:51.293Z,16.80
2017-12-27T22:52:20.005Z,16.80
2017-12-27T22:54:47.201Z,16.80
2017-12-27T22:57:14.393Z,16.80
2017-12-27T22:59:42.325Z,16.70
2017-12-27T23:02:09.512Z,16.70
2017-12-27T23:04:37.441Z,16.80
2017-12-27T23:07:04.610Z,16.80
2017-12-27T23:09:31.815Z,16.80
2017-12-27T23:11:58.977Z,16.80
2017-12-27T23:14:26.158Z,16.80
2017-12-27T23:16:54.257Z,16.80
2017-12-27T23:19:22.189Z,16.80
2017-12-27T23:21:49.357Z,16.80
2017-12-27T23:24:16.537Z,16.80
2017-12-27T23:26:44.469Z,16.70
2017-12-27T23:29:11.661Z,16.70
2017-12-27T23:31:39.617Z,16.80
2017-12-27T23:34:07.605Z,16.80
2017-12-27T23:36:35.533Z,16.80
2017-12-27T23:39:02.688Z,16.80
2017-12-27T23:41:29.880Z,16.70
2017-12-27T23:43:58.722Z,16.80
2017-12-27T23:46:36.444Z,16.80
2017-12-27T23:49:04.384Z,16.80
2017-12-27T23:51:31.557Z,16.80
2017-12-27T23:53:59.617Z,16.80
2017-12-27T23:56:27.693Z,16.80
2017-12-27T23:58:54.870Z,16.80
